METAR v bližini

 

LIPQ - Ronchi Legionari, Italy
Oddaljenost od postaje: JZ 35km
Podatki zajeti: 21. 05. 2024 21:50
Močno dežuje, Pretežno oblačno
Močno dežuje, Pretežno oblačno
 Veter iz smeri spremenljiv
Veter: spremenljiv 4 km/h
Temperatura: 18°C
Temp. rosišča: 17°C
Vlažnost: 94%
Tlak: 1007 hPa
Stanje: Močno dežuje
Oblačnost: Pretežno oblačno
Vidljivost: 10 km
Podrobnosti o oblakih: Pretežno oblačno 396 m
2024/05/21 19:50 LIPQ 211950Z AUTO VRB02KT 9999 +RA BKN013/// 18/17 Q1007
LIVT - Trieste, Italy
Oddaljenost od postaje: J 49km
Podatki zajeti: 21. 05. 2024 21:55

 Veter iz smeri V
Veter: V 7 km/h
Temperatura: 18°C
Temp. rosišča: 16°C
Vlažnost: 88%
Tlak: 1007 hPa
2024/05/21 19:55 LIVT 211955Z AUTO 10004KT 050V170 //// 18/16 Q1007
 
LIVO - Tarvisio, Italy
Oddaljenost od postaje: SSZ 49km
Podatki zajeti: 21. 05. 2024 14:55
Ni posodobljen
Rahlo dežuje, Meglice, Pretežno oblačno
Rahlo dežuje, Meglice, Pretežno oblačno
 Veter iz smeri calm
Veter: Tišina
Temperatura: 15°C
Temp. rosišča: 13°C
Vlažnost: 88%
Tlak: 1007 hPa
Stanje: Rahlo dežuje, Meglice
Oblačnost: Pretežno oblačno
Vidljivost: 4 km
Podrobnosti o oblakih: Pretežno oblačno 457 m
2024/05/21 12:55 LIVO 211255Z 00000KT 4000 -RA BR BKN015 15/13 Q1007
LIPI - Rivolto (it-Afb), Italy
Oddaljenost od postaje: ZJZ 57km
Podatki zajeti: 21. 05. 2024 21:55
Rahlo dežuje, Delno oblačno
Rahlo dežuje, Delno oblačno
 Veter iz smeri SSV
Veter: SSV 4 km/h
Temperatura: 17°C
Temp. rosišča: 15°C
Vlažnost: 88%
Tlak: 1007 hPa
Stanje: Rahlo dežuje
Oblačnost: Delno oblačno
Vidljivost: 10 km
Podrobnosti o oblakih: Delno oblačno 396 m
Delno oblačno 610 m
2024/05/21 19:55 LIPI 211955Z 03002KT 9999 -RA SCT013 SCT020 17/15 Q1007
 
LJLJ - Ljubljana/Brnik, Slovenia
Oddaljenost od postaje: VSV 59km
Podatki zajeti: 21. 05. 2024 22:00
Pretežno oblačno
Pretežno oblačno
 Veter iz smeri VSV
Veter: VSV 6 km/h
Temperatura: 15°C
Temp. rosišča: 14°C
Vlažnost: 94%
Tlak: 1007 hPa
Oblačnost: Pretežno oblačno
Vidljivost: 10 km
Podrobnosti o oblakih: Rahlo oblačno 91 m
Pretežno oblačno 1524 m
2024/05/21 20:00 LJLJ 212000Z 07003KT 9999 FEW003 BKN050 15/14 Q1007 NOSIG
LJPZ - Portoroz, Slovenia
Oddaljenost od postaje: J 68km
Podatki zajeti: 21. 05. 2024 22:00
Delno oblačno
Delno oblačno
 Veter iz smeri JV
Veter: JV 15 km/h
Temperatura: 18°C
Temp. rosišča: 15°C
Vlažnost: 83%
Tlak: 1008 hPa
Oblačnost: Delno oblačno
Vidljivost: 10 km
Podrobnosti o oblakih: Rahlo oblačno 1524 m
Delno oblačno 2438 m
2024/05/21 20:00 LJPZ 212000Z AUTO 13008KT 100V180 9999 FEW050/// SCT080/// 18/15 Q1008
 
LOWK - Klagenfurt(Civ/M, Austria
Oddaljenost od postaje: SV 78km
Podatki zajeti: 21. 05. 2024 22:20
Pretežno oblačno
Pretežno oblačno
 Veter iz smeri spremenljiv
Veter: spremenljiv 2 km/h
Temperatura: 15°C
Temp. rosišča: 14°C
Vlažnost: 94%
Tlak: 1007 hPa
Oblačnost: Pretežno oblačno
Vidljivost: 10 km
Podrobnosti o oblakih: Delno oblačno 1829 m
Pretežno oblačno 2438 m
2024/05/21 20:20 LOWK 212020Z AUTO VRB01KT 9999 SCT060 BKN080 15/14 Q1007 NOSIG
LIPA - Aviano (it/Us-Af, Italy
Oddaljenost od postaje: Z 89km
Podatki zajeti: 21. 05. 2024 21:55
Pretežno oblačno
Pretežno oblačno
 Veter iz smeri SV
Veter: SV 11 km/h
Temperatura: 16°C
Temp. rosišča: 14°C
Vlažnost: 88%
Tlak: 1007 hPa
Oblačnost: Pretežno oblačno
Vidljivost: 10 km
Podrobnosti o oblakih: Delno oblačno 914 m
Pretežno oblačno 1372 m
2024/05/21 19:55 LIPA 211955Z 04006KT 9999 SCT030 BKN045 16/14 Q1007
 
LDRI - Rijeka/Omisalj, Croatia
Oddaljenost od postaje: JV 115km
Podatki zajeti: 21. 05. 2024 22:30
Pretežno oblačno
Pretežno oblačno
 Veter iz smeri VJV
Veter: VJV 11 km/h
Temperatura: 17°C
Temp. rosišča: 16°C
Vlažnost: 94%
Tlak: 1010 hPa
Oblačnost: Pretežno oblačno
Vidljivost: 10 km
Podrobnosti o oblakih: Rahlo oblačno 518 m
Pretežno oblačno 1097 m
2024/05/21 20:30 LDRI 212030Z 12006KT 9999 FEW017 BKN036 17/16 Q1010
LIPZ - Venezia/Tessera, Italy
Oddaljenost od postaje: ZJZ 127km
Podatki zajeti: 21. 05. 2024 22:20
Rahlo oblačno
Rahlo oblačno
 Veter iz smeri J
Veter: J 7 km/h
Temperatura: 19°C
Temp. rosišča: 17°C
Vlažnost: 88%
Tlak: 1007 hPa
Oblačnost: Rahlo oblačno
Vidljivost: 10 km
Podrobnosti o oblakih: Rahlo oblačno 914 m
2024/05/21 20:20 LIPZ 212020Z 17004KT 9999 FEW030 19/17 Q1007 NOSIG
 
LDPL - Pula, Croatia
Oddaljenost od postaje: J 133km
Podatki zajeti: 21. 05. 2024 22:30
Jasno
Jasno
 Veter iz smeri V
Veter: V 9 km/h
Temperatura: 14°C
Temp. rosišča: 14°C
Vlažnost: 100%
Tlak: 1009 hPa
Stanje: Jasno
Vidljivost: večja od 10 km
2024/05/21 20:30 LDPL 212030Z 10005KT CAVOK 14/14 Q1009
LIPS - Istrana (it-Afb), Italy
Oddaljenost od postaje: ZJZ 136km
Podatki zajeti: 21. 05. 2024 21:55
Pretežno oblačno
Pretežno oblačno
 Veter iz smeri SV
Veter: SV 9 km/h
Temperatura: 17°C
Temp. rosišča: 17°C
Vlažnost: 100%
Tlak: 1007 hPa
Oblačnost: Pretežno oblačno
Vidljivost: 10 km
Podrobnosti o oblakih: Delno oblačno 914 m
Pretežno oblačno 1829 m
2024/05/21 19:55 LIPS 211955Z 05005KT 9999 SCT030 BKN060 17/17 Q1007
 
LIVD - Dobbiaco, Italy
Oddaljenost od postaje: ZSZ 137km
Podatki zajeti: 21. 05. 2024 21:55

 Veter iz smeri SZ
Veter: SZ 6 km/h
Temperatura: 10°C
Temp. rosišča: 10°C
Vlažnost: 100%
Tlak: 1011 hPa
2024/05/21 19:55 LIVD 211955Z AUTO 31003KT //// 10/10 Q1011
LJCE - Cerklje, Slovenia
Oddaljenost od postaje: V 139km
Podatki zajeti: 21. 05. 2024 22:00
Delno oblačno
Delno oblačno
 Veter iz smeri spremenljiv
Veter: spremenljiv 2 km/h
Temperatura: 16°C
Temp. rosišča: 15°C
Vlažnost: 94%
Tlak: 1008 hPa
Oblačnost: Delno oblačno
Vidljivost: 10 km
2024/05/21 20:00 LJCE 212000Z AUTO VRB01KT 9999 NSC 16/15 Q1008
 
LOXZ - Zeltweg (mil), Austria
Oddaljenost od postaje: SSV 147km
Podatki zajeti: 21. 05. 2024 21:50
Rahlo dežuje, Plohe, Pretežno oblačno
Rahlo dežuje, Plohe, Pretežno oblačno
 Veter iz smeri VSV
Veter: VSV 7 km/h
Temperatura: 15°C
Temp. rosišča: 14°C
Vlažnost: 94%
Tlak: 1006 hPa
Stanje: Rahlo dežuje, Plohe
Oblačnost: Pretežno oblačno
Vidljivost: 5 km
Podrobnosti o oblakih: Rahlo oblačno 152 m
Delno oblačno 1219 m
Pretežno oblačno 1829 m
2024/05/21 19:50 LOXZ 211950Z 07004KT 5000 -SHRA FEW005 SCT040 BKN060 15/14 Q1006
sucontract_SNC